createdAt,value
2023-01-22T00:00:37.785Z,6.40
2023-01-22T00:03:26.536Z,6.40
2023-01-22T00:06:16.849Z,6.50
2023-01-22T00:09:05.498Z,6.50
2023-01-22T00:17:32.115Z,6.70
2023-01-22T00:23:10.882Z,6.70
2023-01-22T00:26:03.057Z,6.70
2023-01-22T00:28:51.924Z,6.70
2023-01-22T00:31:40.497Z,6.60
2023-01-22T00:34:29.198Z,6.60
2023-01-22T00:40:08.588Z,6.30
2023-01-22T00:42:57.023Z,6.20
2023-01-22T00:45:45.587Z,6.00
2023-01-22T00:48:34.302Z,6.00
2023-01-22T00:51:22.897Z,6.20
2023-01-22T00:54:12.174Z,6.30
2023-01-22T00:57:02.010Z,6.10
2023-01-22T00:59:50.684Z,6.20
2023-01-22T01:02:59.338Z,6.40
2023-01-22T01:05:47.892Z,6.60
2023-01-22T01:08:38.662Z,6.70
2023-01-22T01:11:27.694Z,6.80
2023-01-22T01:14:17.699Z,6.80
2023-01-22T01:17:06.263Z,6.80
2023-01-22T01:19:54.755Z,6.80
2023-01-22T01:22:43.227Z,6.80
2023-01-22T01:25:31.772Z,6.80
2023-01-22T01:28:20.651Z,6.80
2023-01-22T01:31:12.836Z,6.80
2023-01-22T01:34:01.361Z,6.80
2023-01-22T01:36:50.019Z,6.80
2023-01-22T01:39:38.609Z,6.80
2023-01-22T01:42:29.714Z,6.80
2023-01-22T01:45:31.770Z,6.80
2023-01-22T01:48:29.749Z,6.80
2023-01-22T01:51:23.427Z,6.80
2023-01-22T01:54:12.788Z,6.80
2023-01-22T01:57:05.385Z,6.80
2023-01-22T01:59:54.808Z,6.80
2023-01-22T02:02:43.282Z,6.80
2023-01-22T02:05:37.508Z,6.80
2023-01-22T02:08:26.378Z,6.80
2023-01-22T02:11:15.775Z,6.70
2023-01-22T02:14:07.126Z,6.70
2023-01-22T02:17:02.650Z,6.70
2023-01-22T02:19:51.184Z,6.70
2023-01-22T02:22:41.600Z,6.70
2023-01-22T02:25:30.013Z,6.80
2023-01-22T02:28:19.084Z,6.80
2023-01-22T02:31:07.782Z,6.70
2023-01-22T02:33:56.524Z,6.60
2023-01-22T02:36:45.429Z,6.70
2023-01-22T02:39:35.595Z,6.60
2023-01-22T02:42:24.162Z,6.50
2023-01-22T02:45:13.201Z,6.40
2023-01-22T02:48:01.684Z,6.50
2023-01-22T02:50:50.218Z,6.50
2023-01-22T02:53:38.872Z,6.50
2023-01-22T02:56:28.800Z,6.70
2023-01-22T02:59:17.306Z,6.60
2023-01-22T03:02:05.901Z,6.60
2023-01-22T03:05:03.263Z,6.60
2023-01-22T03:07:51.862Z,6.60
2023-01-22T03:10:40.417Z,6.50
2023-01-22T03:13:47.545Z,6.40
2023-01-22T03:16:53.536Z,6.40
2023-01-22T03:31:17.379Z,6.30
2023-01-22T03:34:05.998Z,6.30
2023-01-22T03:39:43.372Z,6.30
2023-01-22T03:42:31.866Z,6.30
2023-01-22T03:45:20.341Z,6.30
2023-01-22T03:48:10.205Z,6.20
2023-01-22T03:50:58.881Z,6.30
2023-01-22T03:53:47.994Z,6.20
2023-01-22T03:56:36.484Z,6.30
2023-01-22T03:59:24.998Z,6.20
2023-01-22T04:02:13.570Z,6.20
2023-01-22T04:07:52.249Z,6.10
2023-01-22T04:10:40.786Z,6.10
2023-01-22T04:13:31.039Z,6.00
2023-01-22T04:16:19.576Z,5.90
2023-01-22T04:19:08.066Z,5.80
2023-01-22T04:21:57.948Z,5.80
2023-01-22T04:24:46.472Z,5.70
2023-01-22T04:27:37.956Z,5.50
2023-01-22T04:30:26.709Z,5.20
2023-01-22T04:33:15.641Z,5.00
2023-01-22T04:36:04.459Z,5.00
2023-01-22T04:38:54.340Z,4.90
2023-01-22T04:41:42.875Z,5.00
2023-01-22T04:44:31.367Z,5.20
2023-01-22T04:47:19.934Z,5.00
2023-01-22T04:50:09.162Z,5.00
2023-01-22T04:52:59.365Z,4.90
2023-01-22T04:55:49.202Z,4.90
2023-01-22T04:58:37.634Z,4.90
2023-01-22T05:01:26.431Z,4.80
2023-01-22T05:04:15.310Z,4.70
2023-01-22T05:07:03.728Z,5.00
2023-01-22T05:09:52.294Z,4.70
2023-01-22T05:12:42.317Z,4.70
2023-01-22T05:15:30.873Z,4.40
2023-01-22T05:18:19.456Z,4.50
2023-01-22T05:21:08.071Z,4.30
2023-01-22T05:23:56.723Z,4.40
2023-01-22T05:26:45.187Z,4.60
2023-01-22T05:29:35.197Z,4.50
2023-01-22T05:32:23.666Z,4.50
2023-01-22T05:35:12.179Z,4.50
2023-01-22T05:38:00.769Z,4.40
2023-01-22T05:40:49.238Z,4.50
2023-01-22T05:43:39.069Z,4.40
2023-01-22T05:46:29.190Z,4.50
2023-01-22T05:49:17.789Z,4.50
2023-01-22T05:52:06.483Z,4.40
2023-01-22T05:54:55.070Z,4.40
2023-01-22T06:03:22.390Z,4.50
2023-01-22T06:09:01.573Z,4.90
2023-01-22T06:11:50.123Z,5.00
2023-01-22T06:14:38.679Z,5.10
2023-01-22T06:17:27.218Z,5.00
2023-01-22T06:20:17.667Z,4.90
2023-01-22T06:23:07.565Z,5.00
2023-01-22T06:25:57.844Z,4.90
2023-01-22T06:28:46.318Z,5.10
2023-01-22T06:31:34.920Z,4.90
2023-01-22T06:34:23.815Z,4.90
2023-01-22T06:37:13.804Z,5.00
2023-01-22T06:40:02.421Z,5.10
2023-01-22T06:42:51.121Z,5.20
2023-01-22T06:45:39.753Z,5.00
2023-01-22T06:48:28.301Z,5.20
2023-01-22T06:51:16.881Z,5.10
2023-01-22T06:54:06.771Z,5.10
2023-01-22T06:56:55.235Z,5.00
2023-01-22T06:59:43.714Z,5.00
2023-01-22T07:02:32.437Z,5.20
2023-01-22T07:05:20.858Z,5.00
2023-01-22T07:08:09.523Z,4.80
2023-01-22T07:10:59.917Z,4.80
2023-01-22T07:13:48.507Z,4.80
2023-01-22T07:16:37.084Z,4.60
2023-01-22T07:22:14.358Z,4.80
2023-01-22T08:24:23.850Z,4.20
2023-01-22T08:27:12.284Z,4.20
2023-01-22T08:30:00.800Z,4.10
2023-01-22T08:32:51.500Z,4.00
2023-01-22T08:41:19.203Z,4.60
2023-01-22T08:44:08.165Z,4.80
2023-01-22T08:46:56.717Z,4.80
2023-01-22T08:49:45.197Z,4.80
2023-01-22T08:52:35.069Z,5.00
2023-01-22T08:55:23.520Z,5.20
2023-01-22T08:58:11.994Z,5.30
2023-01-22T09:01:00.483Z,5.40
2023-01-22T09:03:49.897Z,5.50
2023-01-22T09:06:39.415Z,5.60
2023-01-22T09:09:29.408Z,5.70
2023-01-22T09:12:17.817Z,5.80
2023-01-22T09:15:07.286Z,5.90
2023-01-22T09:17:55.967Z,5.90
2023-01-22T09:20:46.595Z,5.90
2023-01-22T09:23:35.096Z,6.00
2023-01-22T09:26:25.069Z,6.00
2023-01-22T09:29:13.649Z,6.10
2023-01-22T09:32:02.194Z,6.10
2023-01-22T09:34:50.831Z,6.20
2023-01-22T09:37:39.352Z,6.30
2023-01-22T09:40:30.556Z,6.30
2023-01-22T09:43:29.781Z,6.30
2023-01-22T09:46:23.732Z,6.30
2023-01-22T09:49:18.394Z,6.30
2023-01-22T09:52:07.499Z,6.40
2023-01-22T09:54:56.836Z,6.40
2023-01-22T09:57:53.283Z,6.40
2023-01-22T10:00:47.841Z,6.40
2023-01-22T10:03:41.311Z,6.30
2023-01-22T10:06:30.473Z,6.30
2023-01-22T10:09:21.663Z,6.30
2023-01-22T10:12:14.385Z,6.20
2023-01-22T10:15:02.876Z,6.20
2023-01-22T10:17:53.829Z,6.10
2023-01-22T10:20:42.478Z,6.10
2023-01-22T10:23:34.516Z,6.20
2023-01-22T10:26:28.641Z,6.10
2023-01-22T10:29:25.659Z,6.10
2023-01-22T10:32:21.279Z,6.10
2023-01-22T10:35:19.023Z,6.20
2023-01-22T10:38:07.534Z,6.20
2023-01-22T10:41:01.039Z,6.20
2023-01-22T10:43:49.661Z,6.30
2023-01-22T10:46:38.212Z,6.30
2023-01-22T10:49:30.089Z,6.30
2023-01-22T10:52:35.127Z,6.30
2023-01-22T11:07:32.850Z,6.40
2023-01-22T11:10:26.021Z,6.60
2023-01-22T11:13:19.505Z,6.50
2023-01-22T11:16:16.407Z,6.60
2023-01-22T11:19:10.736Z,6.50
2023-01-22T11:21:59.796Z,6.50
2023-01-22T11:24:49.886Z,6.50
2023-01-22T11:27:53.459Z,6.60
2023-01-22T11:30:56.582Z,6.60
2023-01-22T11:34:27.619Z,6.60
2023-01-22T11:37:26.169Z,6.60
2023-01-22T11:40:25.652Z,6.60
2023-01-22T11:43:25.582Z,6.50
2023-01-22T11:46:31.425Z,6.50
2023-01-22T11:49:31.007Z,6.50
2023-01-22T11:52:37.381Z,6.60
2023-01-22T11:55:52.128Z,6.60
2023-01-22T11:58:53.036Z,6.70
2023-01-22T12:02:00.115Z,6.70
2023-01-22T12:05:05.081Z,6.80
2023-01-22T12:08:17.432Z,6.80
2023-01-22T12:11:36.545Z,6.80
2023-01-22T12:14:47.324Z,6.80
2023-01-22T12:17:50.071Z,6.80
2023-01-22T12:20:59.233Z,6.90
2023-01-22T12:23:51.879Z,6.90
2023-01-22T12:26:46.178Z,6.90
2023-01-22T12:29:40.126Z,6.90
2023-01-22T12:32:31.850Z,6.90
2023-01-22T12:35:21.899Z,6.90
2023-01-22T12:38:17.348Z,6.90
2023-01-22T12:41:26.773Z,6.90
2023-01-22T12:44:29.895Z,6.90
2023-01-22T12:47:22.624Z,6.80
2023-01-22T12:50:19.326Z,6.70
2023-01-22T12:53:23.722Z,6.80
2023-01-22T12:56:12.817Z,6.90
2023-01-22T12:59:01.351Z,6.90
2023-01-22T13:02:00.661Z,6.80
2023-01-22T13:04:49.616Z,6.70
2023-01-22T13:07:41.006Z,6.70
2023-01-22T13:10:30.785Z,6.80
2023-01-22T13:13:24.840Z,6.90
2023-01-22T13:16:23.297Z,7.00
2023-01-22T13:19:21.819Z,7.10
2023-01-22T13:22:15.158Z,7.20
2023-01-22T13:25:03.605Z,7.20
2023-01-22T13:27:52.203Z,7.20
2023-01-22T13:30:40.745Z,7.20
2023-01-22T13:33:29.844Z,7.30
2023-01-22T13:36:20.179Z,7.70
2023-01-22T13:39:08.727Z,7.60
2023-01-22T13:41:59.089Z,7.60
2023-01-22T13:44:50.606Z,7.70
2023-01-22T13:47:39.058Z,7.70
2023-01-22T13:50:29.491Z,7.70
2023-01-22T13:53:35.978Z,7.70
2023-01-22T13:56:27.842Z,7.70
2023-01-22T13:59:22.568Z,7.20
2023-01-22T14:02:22.517Z,7.10
2023-01-22T14:05:19.160Z,7.20
2023-01-22T14:08:10.255Z,7.20
2023-01-22T14:11:01.120Z,7.40
2023-01-22T14:13:51.763Z,7.50
2023-01-22T14:16:43.361Z,7.50
2023-01-22T14:19:32.046Z,7.50
2023-01-22T14:22:20.522Z,7.30
2023-01-22T14:25:09.776Z,7.10
2023-01-22T14:28:01.129Z,7.00
2023-01-22T14:30:50.610Z,7.10
2023-01-22T14:33:39.108Z,7.10
2023-01-22T14:36:27.776Z,7.10
2023-01-22T14:39:16.769Z,7.30
2023-01-22T14:42:05.385Z,7.30
2023-01-22T14:44:55.455Z,7.40
2023-01-22T14:47:44.233Z,7.10
2023-01-22T14:50:32.774Z,7.10
2023-01-22T14:53:21.304Z,7.10
2023-01-22T14:56:09.869Z,7.20
2023-01-22T14:58:58.418Z,6.90
2023-01-22T15:01:48.380Z,6.90
2023-01-22T15:04:36.968Z,6.80
2023-01-22T15:07:25.577Z,6.70
2023-01-22T15:10:14.150Z,6.40
2023-01-22T15:13:02.843Z,6.30
2023-01-22T15:15:51.439Z,5.90
2023-01-22T15:18:41.228Z,6.00
2023-01-22T15:21:29.813Z,6.20
2023-01-22T15:24:18.422Z,6.20
2023-01-22T15:27:07.069Z,6.00
2023-01-22T15:29:55.778Z,6.10
2023-01-22T15:32:44.312Z,6.30
2023-01-22T15:35:34.165Z,6.30
2023-01-22T15:38:22.586Z,6.00
2023-01-22T15:41:20.354Z,5.70
2023-01-22T15:44:10.249Z,5.80
2023-01-22T15:47:01.064Z,6.00
2023-01-22T15:49:49.643Z,6.20
2023-01-22T15:52:39.573Z,6.20
2023-01-22T15:55:28.087Z,6.30
2023-01-22T15:58:16.649Z,6.40
2023-01-22T16:01:05.461Z,6.40
2023-01-22T16:03:54.394Z,6.20
2023-01-22T16:06:43.005Z,6.10
2023-01-22T16:09:32.965Z,5.90
2023-01-22T16:12:21.634Z,5.90
2023-01-22T16:15:11.685Z,5.90
2023-01-22T16:18:01.052Z,6.10
2023-01-22T16:20:49.493Z,6.20
2023-01-22T16:23:40.194Z,6.30
2023-01-22T16:26:32.684Z,6.40
2023-01-22T16:29:21.266Z,6.40
2023-01-22T16:32:09.801Z,6.20
2023-01-22T16:34:58.305Z,6.40
2023-01-22T16:37:46.795Z,6.40
2023-01-22T16:40:35.311Z,6.30
2023-01-22T16:43:25.288Z,6.30
2023-01-22T16:46:14.361Z,6.30
2023-01-22T16:49:05.109Z,6.30
2023-01-22T16:51:56.811Z,6.40
2023-01-22T16:54:45.650Z,6.40
2023-01-22T16:57:34.232Z,6.40
2023-01-22T17:00:24.276Z,6.40
2023-01-22T17:03:12.789Z,6.40
2023-01-22T17:06:01.732Z,6.40
2023-01-22T17:08:50.805Z,6.40
2023-01-22T17:11:39.291Z,6.30
2023-01-22T17:14:29.700Z,6.20
2023-01-22T17:17:19.778Z,6.00
2023-01-22T17:20:09.656Z,6.00
2023-01-22T17:22:58.178Z,6.00
2023-01-22T17:25:48.008Z,6.30
2023-01-22T17:28:37.650Z,6.30
2023-01-22T17:31:27.041Z,6.00
2023-01-22T17:34:18.375Z,5.90
2023-01-22T17:37:10.310Z,5.90
2023-01-22T17:39:58.844Z,6.00
2023-01-22T17:42:47.398Z,6.00
2023-01-22T17:45:40.400Z,6.00
2023-01-22T17:48:30.127Z,5.90
2023-01-22T17:51:22.228Z,5.90
2023-01-22T17:54:10.743Z,5.90
2023-01-22T17:56:59.287Z,5.90
2023-01-22T17:59:47.923Z,5.60
2023-01-22T18:02:36.545Z,5.50
2023-01-22T18:05:26.654Z,5.20
2023-01-22T18:08:16.583Z,4.90
2023-01-22T18:11:07.770Z,4.90
2023-01-22T18:13:57.141Z,5.10
2023-01-22T18:16:46.215Z,5.20
2023-01-22T18:19:34.910Z,5.20
2023-01-22T18:22:24.239Z,4.90
2023-01-22T18:25:14.119Z,4.90
2023-01-22T18:28:02.663Z,4.90
2023-01-22T18:30:51.465Z,4.80
2023-01-22T18:33:40.991Z,4.80
2023-01-22T18:36:31.400Z,4.90
2023-01-22T18:39:21.203Z,4.80
2023-01-22T18:42:11.002Z,4.70
2023-01-22T18:44:59.555Z,4.60
2023-01-22T18:47:51.764Z,4.60
2023-01-22T18:50:40.574Z,4.50
2023-01-22T18:53:30.835Z,4.70
2023-01-22T18:56:19.612Z,4.50
2023-01-22T18:59:09.810Z,4.30
2023-01-22T19:01:58.298Z,4.30
2023-01-22T19:04:46.907Z,4.30
2023-01-22T19:07:38.110Z,4.40
2023-01-22T19:10:28.053Z,4.30
2023-01-22T19:13:18.806Z,4.30
2023-01-22T19:16:12.162Z,4.40
2023-01-22T19:19:03.941Z,4.50
2023-01-22T19:24:43.691Z,4.80
2023-01-22T19:27:32.348Z,4.80
2023-01-22T19:30:23.124Z,4.80
2023-01-22T19:33:12.960Z,4.60
2023-01-22T19:36:01.462Z,4.60
2023-01-22T19:38:50.382Z,4.60
2023-01-22T19:44:28.013Z,4.70
2023-01-22T19:47:16.783Z,4.70
2023-01-22T19:50:07.994Z,4.50
2023-01-22T19:52:56.504Z,4.50
2023-01-22T19:55:44.996Z,4.50
2023-01-22T19:58:33.526Z,4.70
2023-01-22T20:01:23.081Z,5.00
2023-01-22T20:04:20.119Z,5.30
2023-01-22T20:07:10.112Z,5.30
2023-01-22T20:09:58.870Z,4.90
2023-01-22T20:12:51.013Z,4.70
2023-01-22T20:15:40.288Z,5.00
2023-01-22T20:18:30.720Z,5.10
2023-01-22T20:21:20.822Z,5.20
2023-01-22T20:24:11.001Z,5.10
2023-01-22T20:26:59.504Z,4.80
2023-01-22T20:29:48.021Z,5.00
2023-01-22T20:32:36.509Z,5.30
2023-01-22T20:35:25.067Z,5.40
2023-01-22T20:38:13.630Z,5.30
2023-01-22T20:41:05.590Z,5.50
2023-01-22T20:43:54.317Z,5.60
2023-01-22T20:46:44.527Z,5.40
2023-01-22T20:49:33.691Z,5.30
2023-01-22T20:52:22.213Z,5.40
2023-01-22T20:55:13.616Z,5.20
2023-01-22T20:58:03.600Z,5.20
2023-01-22T21:00:52.128Z,5.10
2023-01-22T21:03:40.572Z,5.10
2023-01-22T21:06:31.747Z,5.30
2023-01-22T21:09:20.328Z,5.50
2023-01-22T21:12:08.918Z,5.60
2023-01-22T21:14:58.824Z,5.60
2023-01-22T21:17:47.302Z,5.50
2023-01-22T21:20:35.937Z,5.50
2023-01-22T21:23:24.522Z,5.60
2023-01-22T21:26:15.362Z,5.80
2023-01-22T21:29:07.755Z,5.40
2023-01-22T21:31:57.921Z,5.60
2023-01-22T21:34:46.622Z,5.60
2023-01-22T21:37:35.113Z,5.70
2023-01-22T21:40:23.696Z,5.50
2023-01-22T21:43:33.024Z,5.40
2023-01-22T21:46:25.294Z,5.40
2023-01-22T21:49:21.058Z,5.60
2023-01-22T21:52:09.599Z,5.80
2023-01-22T21:54:59.120Z,5.90
2023-01-22T21:57:47.636Z,5.60
2023-01-22T22:00:36.103Z,5.80
2023-01-22T22:03:24.598Z,5.60
2023-01-22T22:06:15.195Z,5.60
2023-01-22T22:09:07.034Z,5.50
2023-01-22T22:11:57.202Z,5.70
2023-01-22T22:14:45.746Z,5.90
2023-01-22T22:17:34.259Z,6.00
2023-01-22T22:20:22.767Z,6.10
2023-01-22T22:23:12.598Z,6.20
2023-01-22T22:26:01.332Z,6.30
2023-01-22T22:28:49.841Z,6.20
2023-01-22T22:31:39.328Z,6.30
2023-01-22T22:34:27.770Z,6.30
2023-01-22T22:37:16.826Z,6.40
2023-01-22T22:40:07.790Z,6.30
2023-01-22T22:42:56.374Z,6.30
2023-01-22T22:45:44.870Z,6.40
2023-01-22T22:48:33.579Z,6.40
2023-01-22T22:51:23.800Z,6.40
2023-01-22T22:54:15.831Z,6.40
2023-01-22T22:57:05.685Z,6.50
2023-01-22T22:59:54.135Z,6.50
2023-01-22T23:02:42.760Z,6.50
2023-01-22T23:05:31.271Z,6.50
2023-01-22T23:08:19.837Z,6.50
2023-01-22T23:11:11.259Z,6.50
2023-01-22T23:14:03.759Z,6.50
2023-01-22T23:16:52.334Z,6.50
2023-01-22T23:19:40.999Z,6.50
2023-01-22T23:22:29.548Z,6.50
2023-01-22T23:25:18.464Z,6.50
2023-01-22T23:28:06.890Z,6.60
2023-01-22T23:30:56.922Z,6.60
2023-01-22T23:33:45.436Z,6.60
2023-01-22T23:36:35.119Z,6.50
2023-01-22T23:39:23.753Z,6.50
2023-01-22T23:42:12.352Z,6.10
2023-01-22T23:45:00.891Z,6.50
2023-01-22T23:47:52.663Z,6.50
2023-01-22T23:50:44.078Z,6.60
2023-01-22T23:53:32.590Z,6.50
2023-01-22T23:56:23.356Z,6.50
2023-01-22T23:59:12.829Z,6.50
